Time;durP1;ratioP1;P1;durP2;ratioP2;P2;SDS_P1;SDS_P2;PMS_P1;PMS_P2;Temp;Humidity;BMP_temperature;BMP_pressure;BME280_temperature;BME280_humidity;BME280_pressure;Samples;Min_cycle;Max_cycle;Signal;HPM_P1;HPM_P2
2022/11/28 00:01:49;;;;;;;0.10;0.10;;;7.20;99.90;;;;;;5078375;28;20112;-85
2022/11/28 00:04:17;;;;;;;0.10;0.10;;;7.20;99.90;;;;;;5066129;28;20036;-84
2022/11/28 00:06:47;;;;;;;0.10;0.10;;;7.80;99.90;;;;;;5076982;28;20569;-84
2022/11/28 00:09:16;;;;;;;0.10;0.10;;;7.20;99.90;;;;;;5081010;28;20044;-83
2022/11/28 00:11:45;;;;;;;0.10;0.10;;;7.30;99.90;;;;;;5084055;28;20075;-83
2022/11/28 00:14:13;;;;;;;0.10;0.10;;;7.30;99.90;;;;;;5089300;28;20047;-84
2022/11/28 00:16:40;;;;;;;0.10;0.10;;;7.30;99.90;;;;;;5094135;28;20354;-84
2022/11/28 00:19:08;;;;;;;0.10;0.10;;;7.30;99.90;;;;;;5073044;28;20083;-84
2022/11/28 00:21:36;;;;;;;0.10;0.10;;;7.30;99.90;;;;;;5069850;28;20108;-85
2022/11/28 00:24:03;;;;;;;0.10;0.10;;;7.20;99.90;;;;;;5086859;28;20484;-85
2022/11/28 00:26:32;;;;;;;0.10;0.10;;;7.20;99.90;;;;;;5090067;28;20516;-84
2022/11/28 00:28:59;;;;;;;0.10;0.10;;;7.20;99.90;;;;;;5084690;28;20043;-86
2022/11/28 00:31:28;;;;;;;0.10;0.10;;;7.20;99.90;;;;;;5070030;28;20044;-85
2022/11/28 00:33:56;;;;;;;0.10;0.10;;;;;;;;;;5068350;28;20567;-85
2022/11/28 00:36:24;;;;;;;0.10;0.10;;;7.30;99.90;;;;;;5069348;28;20136;-87
2022/11/28 00:38:52;;;;;;;0.10;0.10;;;7.30;99.90;;;;;;5072505;28;20667;-84
2022/11/28 00:41:22;;;;;;;0.10;0.10;;;7.40;99.90;;;;;;5073729;28;20051;-87
2022/11/28 00:43:50;;;;;;;0.10;0.10;;;7.30;99.90;;;;;;5073403;28;20470;-85
2022/11/28 00:46:18;;;;;;;0.10;0.10;;;7.40;99.90;;;;;;5074294;28;20120;-85
2022/11/28 00:48:45;;;;;;;0.10;0.10;;;7.40;99.90;;;;;;5070650;28;20058;-85
2022/11/28 00:51:14;;;;;;;0.10;0.10;;;7.40;99.90;;;;;;5074310;28;20048;-87
2022/11/28 00:53:43;;;;;;;0.10;0.10;;;7.40;99.90;;;;;;5070065;28;20040;-84
2022/11/28 00:56:14;;;;;;;0.10;0.10;;;7.40;99.90;;;;;;5069968;28;20036;-83
2022/11/28 00:58:41;;;;;;;0.10;0.10;;;7.40;99.90;;;;;;5070594;28;20105;-86
2022/11/28 01:01:10;;;;;;;0.10;0.10;;;7.40;99.90;;;;;;5070474;28;20056;-85
2022/11/28 01:03:37;;;;;;;0.10;0.10;;;7.40;99.90;;;;;;5072292;28;20472;-84
2022/11/28 01:06:04;;;;;;;0.10;0.10;;;7.40;99.90;;;;;;5084845;28;20071;-84
2022/11/28 01:08:32;;;;;;;0.10;0.10;;;;;;;;;;5091124;28;20044;-86
2022/11/28 01:10:59;;;;;;;0.10;0.10;;;;;;;;;;5082243;28;20040;-84
2022/11/28 01:13:28;;;;;;;0.10;0.10;;;7.50;99.90;;;;;;5087328;28;20112;-86
2022/11/28 01:15:57;;;;;;;0.10;0.10;;;7.40;99.90;;;;;;5066029;28;20056;-84
2022/11/28 01:18:24;;;;;;;0.10;0.10;;;7.50;99.90;;;;;;5065607;28;20079;-85
2022/11/28 01:20:51;;;;;;;0.10;0.10;;;;;;;;;;5074065;28;20479;-87
2022/11/28 01:23:18;;;;;;;0.10;0.10;;;7.50;99.90;;;;;;5079566;28;20384;-83
2022/11/28 01:25:45;;;;;;;0.10;0.10;;;8.10;99.90;;;;;;5071006;28;20040;-85
2022/11/28 01:28:12;;;;;;;0.10;0.10;;;7.50;99.90;;;;;;5069896;28;20461;-87
2022/11/28 01:30:41;;;;;;;0.10;0.10;;;7.50;99.90;;;;;;5082845;28;20102;-84
2022/11/28 01:33:08;;;;;;;0.10;0.10;;;;;;;;;;5064852;28;20044;-86
2022/11/28 01:35:35;;;;;;;0.00;0.00;;;;;;;;;;5078783;28;20105;-85
2022/11/28 01:38:02;;;;;;;0.10;0.10;;;7.50;99.90;;;;;;5065273;28;20439;-83
2022/11/28 01:40:29;;;;;;;0.10;0.10;;;7.40;99.90;;;;;;5067910;28;20052;-85
2022/11/28 01:42:56;;;;;;;0.10;0.10;;;;;;;;;;5066007;28;20093;-85
2022/11/28 01:45:26;;;;;;;0.10;0.10;;;7.40;99.90;;;;;;5062695;28;21441;-87
2022/11/28 01:47:58;;;;;;;0.10;0.10;;;7.50;99.90;;;;;;5064473;28;20083;-87
2022/11/28 01:50:27;;;;;;;0.10;0.10;;;9.70;99.90;;;;;;5080764;28;20530;-86
2022/11/28 01:52:57;;;;;;;0.10;0.10;;;7.30;99.90;;;;;;5064289;28;20172;-86
2022/11/28 01:55:29;;;;;;;0.10;0.10;;;7.40;99.90;;;;;;5067268;28;20049;-84
2022/11/28 01:57:57;;;;;;;0.10;0.10;;;7.40;99.90;;;;;;5066271;28;20056;-84
2022/11/28 02:00:24;;;;;;;0.10;0.10;;;7.40;99.90;;;;;;5079771;28;22470;-86
2022/11/28 02:02:54;;;;;;;0.10;0.10;;;7.40;99.90;;;;;;5062672;28;20083;-87
2022/11/28 02:05:23;;;;;;;0.10;0.10;;;7.40;99.90;;;;;;5080796;28;20564;-84
2022/11/28 02:07:51;;;;;;;0.10;0.10;;;7.40;99.90;;;;;;5082387;28;20125;-86
2022/11/28 02:10:22;;;;;;;0.10;0.10;;;7.50;99.90;;;;;;5068821;28;20495;-85
2022/11/28 02:13:09;;;;;;;0.10;0.10;;;7.50;99.90;;;;;;5063908;28;20044;-84
2022/11/28 02:15:51;;;;;;;0.10;0.10;;;7.60;99.90;;;;;;5061387;28;20519;-86
2022/11/28 02:18:36;;;;;;;0.10;0.10;;;7.60;99.90;;;;;;5088054;28;20050;-85
2022/11/28 02:21:17;;;;;;;0.10;0.10;;;7.50;99.90;;;;;;5079932;28;20090;-86
2022/11/28 02:24:28;;;;;;;0.10;0.10;;;7.50;99.90;;;;;;5064177;28;20039;-87
2022/11/28 02:27:21;;;;;;;0.10;0.10;;;7.50;99.90;;;;;;5060746;28;20043;-87
2022/11/28 02:30:10;;;;;;;0.10;0.10;;;7.50;99.90;;;;;;5068712;28;20121;-84
2022/11/28 02:32:56;;;;;;;0.10;0.10;;;7.40;99.90;;;;;;5085528;28;20093;-84
2022/11/28 02:35:32;;;;;;;0.10;0.10;;;6.90;99.90;;;;;;5075066;28;20070;-85
2022/11/28 02:38:07;;;;;;;0.10;0.10;;;7.30;99.90;;;;;;5070607;28;20117;-83
2022/11/28 02:40:38;;;;;;;0.10;0.10;;;7.20;99.90;;;;;;5083567;28;20090;-85
2022/11/28 02:43:15;;;;;;;0.10;0.10;;;7.30;99.90;;;;;;5070535;28;20499;-86
2022/11/28 02:45:51;;;;;;;0.10;0.10;;;7.30;99.90;;;;;;5078882;28;20077;-84
2022/11/28 02:48:28;;;;;;;0.10;0.10;;;7.30;99.90;;;;;;5084630;28;20048;-85
2022/11/28 02:51:00;;;;;;;0.10;0.10;;;7.20;99.90;;;;;;5078011;28;20048;-86
2022/11/28 02:53:29;;;;;;;0.10;0.10;;;7.20;99.90;;;;;;5079524;28;20048;-85
2022/11/28 02:55:57;;;;;;;0.10;0.10;;;7.30;99.90;;;;;;5067408;28;20073;-84
2022/11/28 02:58:25;;;;;;;0.10;0.10;;;7.20;99.90;;;;;;5081585;28;20052;-86
2022/11/28 03:00:52;;;;;;;0.10;0.10;;;;;;;;;;5064077;28;20044;-86
2022/11/28 03:03:46;;;;;;;0.10;0.10;;;7.10;99.90;;;;;;5085044;28;20063;-84
2022/11/28 03:06:23;;;;;;;0.10;0.10;;;7.10;99.90;;;;;;5054739;28;20047;-84
2022/11/28 03:09:05;;;;;;;0.10;0.10;;;7.10;99.90;;;;;;5067729;28;20462;-87
2022/11/28 03:11:45;;;;;;;0.10;0.10;;;7.10;99.90;;;;;;5069470;28;20094;-84
2022/11/28 03:14:19;;;;;;;0.10;0.10;;;7.10;99.90;;;;;;5068066;28;20041;-86
2022/11/28 03:16:53;;;;;;;0.10;0.10;;;7.10;99.90;;;;;;5068258;28;20048;-86
2022/11/28 03:19:27;;;;;;;0.10;0.10;;;7.10;99.90;;;;;;5083719;28;20059;-86
2022/11/28 03:22:02;;;;;;;0.10;0.10;;;7.10;99.90;;;;;;5057443;28;20044;-85
2022/11/28 03:24:35;;;;;;;0.10;0.10;;;7.10;99.90;;;;;;5069074;28;20063;-86
2022/11/28 03:27:08;;;;;;;0.10;0.10;;;9.20;99.90;;;;;;5077807;28;20043;-83
2022/11/28 03:29:38;;;;;;;0.10;0.10;;;7.10;99.90;;;;;;5069700;28;20097;-86
2022/11/28 03:32:08;;;;;;;0.10;0.10;;;7.10;99.90;;;;;;5064378;28;20105;-84
2022/11/28 03:34:38;;;;;;;;;;;7.10;99.90;;;;;;5067136;28;20071;-85
2022/11/28 03:37:10;;;;;;;0.10;0.10;;;7.00;99.90;;;;;;5069639;28;19935;-86
2022/11/28 03:39:43;;;;;;;0.10;0.10;;;7.10;99.90;;;;;;5063664;28;20060;-86
2022/11/28 03:42:13;;;;;;;0.10;0.10;;;7.10;99.90;;;;;;5085258;28;20051;-86
2022/11/28 03:44:46;;;;;;;0.10;0.10;;;7.10;99.90;;;;;;5079945;28;20045;-86
2022/11/28 03:47:13;;;;;;;0.10;0.10;;;;;;;;;;5068942;28;20056;-86
2022/11/28 03:49:49;;;;;;;0.10;0.10;;;7.10;99.90;;;;;;5069551;28;20431;-85
2022/11/28 03:52:23;;;;;;;0.10;0.10;;;7.10;99.90;;;;;;5067056;28;20653;-84
2022/11/28 03:54:54;;;;;;;0.10;0.10;;;9.40;99.90;;;;;;5066488;28;20063;-85
2022/11/28 03:57:29;;;;;;;0.10;0.10;;;7.30;99.90;;;;;;5084320;28;20051;-85
2022/11/28 03:59:58;;;;;;;0.10;0.10;;;7.30;99.90;;;;;;5066977;28;20045;-85
2022/11/28 04:02:31;;;;;;;0.10;0.10;;;7.40;99.90;;;;;;5075694;28;20109;-86
2022/11/28 04:05:06;;;;;;;0.10;0.10;;;7.40;99.90;;;;;;5057598;28;20070;-84
2022/11/28 04:07:38;;;;;;;0.20;0.20;;;7.50;99.90;;;;;;5066495;28;20090;-86
2022/11/28 04:10:12;;;;;;;0.10;0.10;;;7.30;99.90;;;;;;5054258;28;20047;-83
2022/11/28 04:12:47;;;;;;;0.10;0.10;;;7.60;99.90;;;;;;5091451;28;20048;-84
2022/11/28 04:15:19;;;;;;;0.10;0.10;;;7.70;99.90;;;;;;5085595;28;20453;-84
2022/11/28 04:17:53;;;;;;;0.10;0.10;;;7.70;99.90;;;;;;5071623;28;20052;-84
2022/11/28 04:20:28;;;;;;;0.10;0.10;;;7.70;99.90;;;;;;5082937;28;20446;-85
2022/11/28 04:23:01;;;;;;;0.10;0.10;;;7.90;99.90;;;;;;5071239;28;20048;-83
2022/11/28 04:25:31;;;;;;;0.10;0.10;;;7.90;99.90;;;;;;5069018;28;20087;-86
2022/11/28 04:28:01;;;;;;;0.10;0.10;;;7.90;99.90;;;;;;5079208;28;20057;-83
2022/11/28 04:30:29;;;;;;;0.10;0.10;;;;;;;;;;5067393;28;20060;-85
2022/11/28 04:32:59;;;;;;;0.10;0.10;;;7.90;99.90;;;;;;5071032;28;20044;-83
2022/11/28 04:35:31;;;;;;;0.10;0.10;;;7.80;99.90;;;;;;5084074;28;20877;-87
2022/11/28 04:38:00;;;;;;;0.10;0.10;;;7.80;99.90;;;;;;5069248;28;20044;-83
2022/11/28 04:40:31;;;;;;;0.10;0.10;;;7.90;99.90;;;;;;5064571;28;20060;-86
2022/11/28 04:43:01;;;;;;;0.10;0.10;;;7.90;99.90;;;;;;5071182;28;20044;-86
2022/11/28 04:45:32;;;;;;;0.10;0.10;;;8.00;99.90;;;;;;5076678;28;20032;-86
2022/11/28 04:48:00;;;;;;;0.10;0.10;;;8.00;99.90;;;;;;5073600;28;20048;-84
2022/11/28 04:50:33;;;;;;;0.10;0.10;;;10.70;99.90;;;;;;5065701;28;20101;-85
2022/11/28 04:53:05;;;;;;;0.10;0.10;;;8.10;99.90;;;;;;5079509;28;20056;-87
2022/11/28 04:55:37;;;;;;;0.10;0.10;;;8.00;99.90;;;;;;5075606;28;20051;-85
2022/11/28 04:58:10;;;;;;;0.10;0.10;;;8.00;99.90;;;;;;5084459;28;20048;-86
2022/11/28 05:00:38;;;;;;;0.10;0.10;;;8.00;99.90;;;;;;5070380;28;20040;-84
2022/11/28 05:03:05;;;;;;;0.10;0.10;;;;;;;;;;5067876;28;20102;-86
2022/11/28 05:05:43;;;;;;;0.10;0.10;;;7.90;99.90;;;;;;5068700;28;20457;-84
2022/11/28 05:08:10;;;;;;;0.10;0.10;;;;;;;;;;5066907;28;20477;-85
2022/11/28 05:10:37;;;;;;;0.10;0.10;;;8.00;99.90;;;;;;5083592;28;20081;-85
2022/11/28 05:13:04;;;;;;;0.10;0.10;;;7.90;99.90;;;;;;5068060;28;20079;-85
2022/11/28 05:15:32;;;;;;;0.10;0.10;;;;;;;;;;5089043;28;20105;-86
2022/11/28 05:17:59;;;;;;;0.10;0.10;;;8.00;99.90;;;;;;5083178;28;20048;-86
2022/11/28 05:20:26;;;;;;;0.10;0.10;;;8.00;99.90;;;;;;5079125;28;20048;-85
2022/11/28 05:22:55;;;;;;;0.10;0.10;;;8.00;99.90;;;;;;5069205;28;20071;-85
2022/11/28 05:25:22;;;;;;;0.10;0.10;;;8.00;99.90;;;;;;5081364;28;20041;-87
2022/11/28 05:27:49;;;;;;;0.10;0.10;;;9.20;99.90;;;;;;5065558;28;20472;-86
2022/11/28 05:30:16;;;;;;;0.10;0.10;;;8.20;99.90;;;;;;5066897;28;20045;-84
2022/11/28 05:32:43;;;;;;;0.10;0.10;;;8.10;99.90;;;;;;5082742;28;20655;-85
2022/11/28 05:35:10;;;;;;;0.10;0.10;;;;;;;;;;5062684;28;20044;-84
2022/11/28 05:37:37;;;;;;;0.10;0.10;;;8.20;99.90;;;;;;5067003;28;20736;-85
2022/11/28 05:40:07;;;;;;;0.00;0.00;;;8.20;99.90;;;;;;5068854;28;20059;-85
2022/11/28 05:42:35;;;;;;;0.10;0.10;;;8.20;99.90;;;;;;5080277;22;20076;-88
2022/11/28 05:45:03;;;;;;;0.10;0.10;;;8.20;99.90;;;;;;5020449;28;20065;-88
2022/11/28 05:47:30;;;;;;;0.10;0.10;;;8.20;99.90;;;;;;5025213;28;20506;-88
2022/11/28 05:49:58;;;;;;;0.10;0.10;;;;;;;;;;5024509;28;20049;-88
2022/11/28 05:52:28;;;;;;;0.10;0.10;;;8.40;99.90;;;;;;5021252;28;20061;-88
2022/11/28 05:54:55;;;;;;;0.10;0.10;;;8.40;99.90;;;;;;5019495;28;20045;-88
2022/11/28 05:57:23;;;;;;;0.10;0.10;;;8.40;99.90;;;;;;5020451;28;20543;-88
2022/11/28 05:59:50;;;;;;;0.10;0.10;;;8.40;99.90;;;;;;5040426;28;20049;-89
2022/11/28 06:02:17;;;;;;;0.10;0.10;;;8.50;99.90;;;;;;5024659;28;20123;-88
2022/11/28 06:04:44;;;;;;;0.10;0.10;;;8.40;99.90;;;;;;5021007;28;20076;-87
2022/11/28 06:07:12;;;;;;;0.10;0.10;;;;;;;;;;5036810;28;20057;-88
2022/11/28 06:09:39;;;;;;;0.10;0.10;;;;;;;;;;5021739;28;20045;-89
2022/11/28 06:12:07;;;;;;;0.10;0.10;;;8.30;99.90;;;;;;5022689;28;20045;-87
2022/11/28 06:14:35;;;;;;;0.10;0.10;;;8.30;99.90;;;;;;5027102;28;20049;-88
2022/11/28 06:17:02;;;;;;;0.10;0.10;;;8.30;99.90;;;;;;5018059;28;20080;-89
2022/11/28 06:19:29;;;;;;;0.10;0.10;;;8.30;99.90;;;;;;5020430;28;20167;-88
2022/11/28 06:21:56;;;;;;;0.10;0.10;;;8.30;99.90;;;;;;5025566;28;20623;-88
2022/11/28 06:24:23;;;;;;;0.10;0.10;;;8.30;99.90;;;;;;5037483;28;20053;-87
2022/11/28 06:26:50;;;;;;;0.10;0.10;;;;;;;;;;5026845;28;20076;-88
2022/11/28 06:29:17;;;;;;;0.10;0.10;;;8.20;99.90;;;;;;5024498;28;20084;-89
2022/11/28 06:31:46;;;;;;;0.10;0.10;;;8.20;99.90;;;;;;5025491;28;20046;-89
2022/11/28 06:34:13;;;;;;;0.10;0.10;;;8.20;99.90;;;;;;5038802;28;20501;-89
2022/11/28 06:36:40;;;;;;;0.10;0.10;;;;;;;;;;5021961;28;20053;-88
2022/11/28 06:39:08;;;;;;;0.10;0.10;;;8.20;99.90;;;;;;5023555;28;20211;-88
2022/11/28 06:41:35;;;;;;;0.00;0.00;;;8.20;99.90;;;;;;5024481;28;20053;-89
2022/11/28 06:44:03;;;;;;;0.10;0.10;;;;;;;;;;5029824;28;20122;-88
2022/11/28 06:46:30;;;;;;;0.10;0.10;;;;;;;;;;5026290;28;20049;-88
2022/11/28 06:48:58;;;;;;;0.10;0.10;;;8.20;99.90;;;;;;5027704;28;20506;-88
2022/11/28 06:51:25;;;;;;;0.10;0.10;;;;;;;;;;5027540;28;20049;-88
2022/11/28 06:53:53;;;;;;;0.10;0.10;;;8.20;99.90;;;;;;5021376;28;20069;-88
2022/11/28 06:56:20;;;;;;;0.10;0.10;;;8.00;99.90;;;;;;5024625;28;20057;-88
2022/11/28 06:58:53;;;;;;;0.10;0.10;;;8.00;99.90;;;;;;5025264;28;20038;-87
2022/11/28 07:01:21;;;;;;;0.10;0.10;;;8.00;99.90;;;;;;5025065;28;20525;-89
2022/11/28 07:03:49;;;;;;;0.10;0.10;;;8.00;99.90;;;;;;5027079;28;20468;-88
2022/11/28 07:06:18;;;;;;;0.10;0.10;;;8.00;99.90;;;;;;5021618;28;20147;-88
2022/11/28 07:08:46;;;;;;;0.10;0.10;;;8.00;99.90;;;;;;5021968;28;20052;-89
2022/11/28 07:11:15;;;;;;;0.10;0.10;;;8.00;99.90;;;;;;5039268;28;20049;-88
2022/11/28 07:13:46;;;;;;;0.10;0.10;;;8.10;99.90;;;;;;5022025;28;20045;-89
2022/11/28 07:16:15;;;;;;;0.10;0.10;;;8.00;99.90;;;;;;5025504;28;20053;-88
2022/11/28 07:18:43;;;;;;;0.10;0.10;;;;;;;;;;5028164;28;20045;-88
2022/11/28 07:21:10;;;;;;;0.10;0.10;;;8.00;99.90;;;;;;5025277;28;20481;-88
2022/11/28 07:23:39;;;;;;;0.10;0.10;;;7.90;99.90;;;;;;5025359;28;20088;-88
2022/11/28 07:26:07;;;;;;;0.10;0.10;;;9.50;99.90;;;;;;5021775;28;20069;-88
2022/11/28 07:28:34;;;;;;;0.10;0.10;;;;;;;;;;5026219;28;20457;-88
2022/11/28 07:31:04;;;;;;;0.10;0.10;;;7.90;99.90;;;;;;5025239;28;20106;-88
2022/11/28 07:33:32;;;;;;;0.10;0.10;;;;;;;;;;5029570;28;20045;-88
2022/11/28 07:35:59;;;;;;;0.10;0.10;;;7.90;99.90;;;;;;5026435;28;20045;-89
2022/11/28 07:38:27;;;;;;;0.10;0.10;;;;;;;;;;5026413;28;20054;-89
2022/11/28 07:41:00;;;;;;;0.10;0.10;;;7.80;99.90;;;;;;5026458;28;20084;-87
2022/11/28 07:43:27;;;;;;;0.10;0.10;;;7.70;99.90;;;;;;5026406;28;20107;-89
2022/11/28 07:45:54;;;;;;;0.10;0.10;;;7.60;99.90;;;;;;5028843;28;20037;-90
2022/11/28 07:48:27;;;;;;;0.10;0.10;;;7.50;99.90;;;;;;5043533;28;20421;-89
2022/11/28 07:50:54;;;;;;;0.10;0.10;;;7.40;99.90;;;;;;5025867;28;20037;-88
2022/11/28 07:53:22;;;;;;;0.10;0.10;;;7.40;99.90;;;;;;5026257;28;20045;-87
2022/11/28 07:55:49;;;;;;;0.10;0.10;;;;;;;;;;5024585;28;20045;-87
2022/11/28 07:58:20;;;;;;;0.10;0.10;;;7.40;99.90;;;;;;5020874;28;20571;-88
2022/11/28 08:00:48;;;;;;;0.10;0.10;;;;;;;;;;5027075;28;20077;-88
2022/11/28 08:03:15;;;;;;;0.10;0.10;;;;;;;;;;5026565;28;20053;-88
2022/11/28 08:05:48;;;;;;;0.10;0.10;;;;;;;;;;5027669;28;20038;-88
2022/11/28 08:08:15;;;;;;;0.08;0.08;;;7.30;99.90;;;;;;5027715;28;20046;-88
2022/11/28 08:10:42;;;;;;;0.10;0.10;;;;;;;;;;5024631;28;20054;-88
2022/11/28 08:13:10;;;;;;;0.10;0.10;;;;;;;;;;5024584;28;20142;-88
2022/11/28 08:15:39;;;;;;;0.10;0.10;;;7.50;99.90;;;;;;5030755;28;20046;-88
2022/11/28 08:18:06;;;;;;;0.10;0.10;;;7.40;99.90;;;;;;5030150;28;20049;-88
2022/11/28 08:20:33;;;;;;;0.10;0.10;;;7.40;99.90;;;;;;5027945;28;20045;-88
2022/11/28 08:23:00;;;;;;;0.10;0.10;;;7.50;99.90;;;;;;5020710;28;20088;-88
2022/11/28 08:25:27;;;;;;;0.10;0.10;;;7.50;99.90;;;;;;5022672;28;20049;-89
2022/11/28 08:27:54;;;;;;;0.10;0.10;;;7.50;99.90;;;;;;5025062;28;20053;-88
2022/11/28 08:30:21;;;;;;;0.10;0.10;;;7.50;99.90;;;;;;5022387;28;20046;-90
2022/11/28 08:32:49;;;;;;;0.10;0.10;;;7.50;99.90;;;;;;5023933;28;20041;-90
2022/11/28 08:35:17;;;;;;;0.10;0.10;;;7.50;99.90;;;;;;5020259;28;20137;-88
2022/11/28 08:37:44;;;;;;;0.10;0.10;;;;;;;;;;5025351;28;20525;-90
2022/11/28 08:40:12;;;;;;;0.10;0.10;;;7.60;99.90;;;;;;5019529;28;20481;-88
2022/11/28 08:42:39;;;;;;;0.10;0.10;;;7.50;99.90;;;;;;5024342;28;20058;-88
2022/11/28 08:45:09;;;;;;;0.10;0.10;;;7.50;99.90;;;;;;5030101;28;20100;-89
2022/11/28 08:47:36;;;;;;;;;;;7.50;99.90;;;;;;5031524;28;20073;-90
2022/11/28 08:50:06;;;;;;;0.10;0.10;;;7.50;99.90;;;;;;5028874;28;19921;-88
2022/11/28 08:52:33;;;;;;;0.10;0.10;;;7.50;99.90;;;;;;5028325;28;20053;-88
2022/11/28 08:55:00;;;;;;;0.10;0.10;;;7.70;99.90;;;;;;5031257;28;20057;-89
2022/11/28 08:57:27;;;;;;;0.10;0.10;;;7.50;99.90;;;;;;5028492;28;20386;-88
2022/11/28 08:59:54;;;;;;;0.10;0.10;;;7.50;99.90;;;;;;5023826;28;20049;-88
2022/11/28 09:02:21;;;;;;;0.10;0.10;;;;;;;;;;5030094;28;20053;-90
2022/11/28 09:04:52;;;;;;;0.10;0.10;;;7.60;99.90;;;;;;5028143;28;20056;-89
2022/11/28 09:07:20;;;;;;;0.10;0.10;;;7.60;99.90;;;;;;5026815;28;20303;-88
2022/11/28 09:09:47;;;;;;;0.10;0.10;;;7.60;99.90;;;;;;5027304;28;20113;-88
2022/11/28 09:12:15;;;;;;;0.10;0.10;;;7.60;99.90;;;;;;5029098;28;20045;-88
2022/11/28 09:14:42;;;;;;;0.10;0.10;;;;;;;;;;5027290;28;20124;-88
2022/11/28 09:17:09;;;;;;;0.00;0.00;;;7.60;99.90;;;;;;5030691;28;20030;-88
2022/11/28 09:19:37;;;;;;;0.03;0.03;;;;;;;;;;5025089;28;20056;-89
2022/11/28 09:22:03;;;;;;;0.10;0.10;;;7.50;99.90;;;;;;5024648;28;20057;-88
2022/11/28 09:24:32;;;;;;;0.10;0.10;;;9.30;99.90;;;;;;5026321;28;20077;-89
2022/11/28 09:26:59;;;;;;;0.10;0.10;;;;;;;;;;5023304;28;20069;-88
2022/11/28 09:29:28;;;;;;;0.10;0.10;;;7.40;99.90;;;;;;5023093;28;20103;-88
2022/11/28 09:31:55;;;;;;;0.10;0.10;;;7.40;99.90;;;;;;5024153;28;20084;-88
2022/11/28 09:34:21;;;;;;;0.10;0.10;;;7.30;99.90;;;;;;5025884;28;20049;-88
2022/11/28 09:36:49;;;;;;;0.10;0.10;;;;;;;;;;5023969;28;20045;-89
2022/11/28 09:39:16;;;;;;;0.10;0.10;;;7.40;99.90;;;;;;5025610;28;20072;-90
2022/11/28 09:41:54;;;;;;;0.10;0.10;;;7.50;99.90;;;;;;5040129;28;20073;-88
2022/11/28 09:44:25;;;;;;;0.10;0.10;;;7.60;99.90;;;;;;5039468;28;20473;-88
2022/11/28 09:46:56;;;;;;;0.10;0.10;;;7.60;99.90;;;;;;5022185;28;20046;-88
2022/11/28 09:49:30;;;;;;;0.10;0.10;;;7.70;99.90;;;;;;5025362;28;20049;-88
2022/11/28 09:52:24;;;;;;;0.10;0.10;;;7.70;99.90;;;;;;5025341;28;20042;-90
2022/11/28 09:54:58;;;;;;;0.10;0.10;;;7.70;99.90;;;;;;5026898;28;20049;-89
2022/11/28 09:57:33;;;;;;;0.10;0.10;;;7.80;99.90;;;;;;5024655;28;20075;-88
2022/11/28 10:00:00;;;;;;;0.10;0.10;;;7.70;99.90;;;;;;5026216;28;20041;-87
2022/11/28 10:02:33;;;;;;;0.10;0.10;;;7.70;99.90;;;;;;5029033;28;20069;-85
2022/11/28 10:05:08;;;;;;;0.10;0.10;;;8.80;99.90;;;;;;5026883;28;20033;-86
2022/11/28 10:07:46;;;;;;;0.10;0.10;;;7.70;99.90;;;;;;5029632;28;20041;-84
2022/11/28 10:10:30;;;;;;;0.05;0.05;;;9.30;99.90;;;;;;5029647;28;20409;-83
2022/11/28 10:13:06;;;;;;;0.10;0.10;;;7.70;99.90;;;;;;5041915;28;20054;-85
2022/11/28 10:15:46;;;;;;;0.10;0.10;;;7.70;99.90;;;;;;5027559;28;20136;-85
2022/11/28 10:18:27;;;;;;;0.10;0.10;;;7.80;99.90;;;;;;5030711;28;20474;-85
2022/11/28 10:20:57;;;;;;;0.10;0.10;;;7.90;99.90;;;;;;5023670;28;20049;-86
2022/11/28 10:23:29;;;;;;;0.10;0.10;;;7.90;99.90;;;;;;5042076;28;20061;-85
2022/11/28 10:26:00;;;;;;;0.10;0.10;;;8.00;99.90;;;;;;5026151;28;20390;-85
2022/11/28 10:28:33;;;;;;;0.10;0.10;;;8.00;99.90;;;;;;5025391;28;20053;-84
2022/11/28 10:31:04;;;;;;;0.10;0.10;;;8.00;99.90;;;;;;5024248;28;20046;-86
2022/11/28 10:33:40;;;;;;;0.10;0.10;;;8.10;99.90;;;;;;5027470;28;20057;-83
2022/11/28 10:36:13;;;;;;;0.10;0.10;;;8.10;99.90;;;;;;5040177;28;20065;-84
2022/11/28 10:38:41;;;;;;;0.10;0.10;;;;;;;;;;5023188;28;20049;-85
2022/11/28 10:41:15;;;;;;;0.10;0.10;;;8.10;99.90;;;;;;5027652;28;21861;-85
2022/11/28 10:43:50;;;;;;;0.10;0.10;;;8.10;99.90;;;;;;5026024;28;20042;-86
2022/11/28 10:46:41;;;;;;;0.10;0.10;;;8.20;99.90;;;;;;5026308;28;20394;-85
2022/11/28 10:49:23;;;;;;;0.10;0.10;;;8.20;99.90;;;;;;5026131;28;20277;-86
2022/11/28 10:52:01;;;;;;;0.10;0.10;;;8.20;99.90;;;;;;5025004;28;20041;-83
2022/11/28 10:54:52;;;;;;;0.10;0.10;;;8.10;99.90;;;;;;5024850;28;20115;-84
2022/11/28 10:57:25;;;;;;;0.00;0.00;;;8.10;99.90;;;;;;5024305;28;20050;-85
2022/11/28 11:00:02;;;;;;;0.10;0.10;;;8.10;99.90;;;;;;5023683;28;20066;-85
2022/11/28 11:02:36;;;;;;;0.10;0.10;;;8.20;99.90;;;;;;5026385;28;20045;-84
2022/11/28 11:05:03;;;;;;;0.10;0.10;;;8.20;99.90;;;;;;5023435;28;20056;-86
2022/11/28 11:07:32;;;;;;;0.10;0.10;;;8.30;99.90;;;;;;5025946;28;20045;-86
2022/11/28 11:10:11;;;;;;;0.10;0.10;;;8.30;99.90;;;;;;5026880;28;20077;-85
2022/11/28 11:12:39;;;;;;;0.10;0.10;;;8.20;99.90;;;;;;5025740;28;20068;-83
2022/11/28 11:15:23;;;;;;;0.10;0.10;;;8.10;99.90;;;;;;5026035;28;20070;-85
2022/11/28 11:17:50;;;;;;;0.10;0.10;;;;;;;;;;5026484;28;20053;-85
2022/11/28 11:20:32;;;;;;;0.10;0.10;;;8.10;99.90;;;;;;5027001;28;20099;-85
2022/11/28 11:23:01;;;;;;;0.10;0.10;;;8.10;99.90;;;;;;5027049;28;20453;-85
2022/11/28 11:25:30;;;;;;;0.10;0.10;;;8.20;99.90;;;;;;5025017;28;20049;-85
2022/11/28 11:28:00;;;;;;;0.10;0.10;;;8.20;99.90;;;;;;5027918;28;20045;-86
2022/11/28 11:30:31;;;;;;;0.10;0.10;;;8.30;99.90;;;;;;5031100;28;20057;-84
2022/11/28 11:32:59;;;;;;;0.10;0.10;;;8.40;99.90;;;;;;5033720;28;20679;-85
2022/11/28 11:35:29;;;;;;;0.10;0.10;;;8.50;99.90;;;;;;5029274;28;20057;-84
2022/11/28 11:38:15;;;;;;;0.10;0.10;;;8.50;99.90;;;;;;5031357;28;20037;-86
2022/11/28 11:40:43;;;;;;;0.10;0.10;;;8.60;99.90;;;;;;5036271;28;20053;-86
2022/11/28 11:43:26;;;;;;;0.03;0.03;;;8.60;99.90;;;;;;5048628;22;20045;-86
2022/11/28 11:46:06;;;;;;;0.10;0.10;;;8.60;99.90;;;;;;5052392;28;20509;-85
2022/11/28 11:48:35;;;;;;;0.10;0.10;;;8.70;99.90;;;;;;5062943;28;20387;-84
2022/11/28 11:51:02;;;;;;;0.10;0.10;;;;;;;;;;5054107;28;20063;-85
2022/11/28 11:53:30;;;;;;;0.10;0.10;;;;;;;;;;5073460;28;20056;-85
2022/11/28 11:56:01;;;;;;;0.10;0.10;;;8.80;99.90;;;;;;5053380;28;20099;-85
2022/11/28 11:58:35;;;;;;;0.10;0.10;;;8.80;99.90;;;;;;5068071;28;20078;-83
2022/11/28 12:01:05;;;;;;;0.10;0.10;;;9.00;99.90;;;;;;5061037;28;20053;-83
2022/11/28 12:03:36;;;;;;;0.10;0.10;;;9.20;99.90;;;;;;5050276;28;20052;-83
2022/11/28 12:06:10;;;;;;;0.10;0.10;;;10.80;99.90;;;;;;5050144;28;20055;-84
2022/11/28 12:08:46;;;;;;;0.10;0.10;;;8.80;99.90;;;;;;5047295;28;20080;-83
2022/11/28 12:11:19;;;;;;;0.10;0.10;;;8.80;99.90;;;;;;5049779;28;20049;-84
2022/11/28 12:13:47;;;;;;;0.10;0.10;;;8.90;99.90;;;;;;5050877;28;20094;-84
2022/11/28 12:16:31;;;;;;;0.10;0.10;;;8.70;99.90;;;;;;5044334;28;20572;-83
2022/11/28 12:19:06;;;;;;;0.10;0.10;;;8.70;99.90;;;;;;5052647;28;20295;-83
2022/11/28 12:21:40;;;;;;;0.10;0.10;;;9.60;99.90;;;;;;5033987;28;20079;-83
2022/11/28 12:24:11;;;;;;;0.10;0.10;;;8.70;99.90;;;;;;5065573;28;20106;-85
2022/11/28 12:26:46;;;;;;;0.10;0.10;;;8.70;99.90;;;;;;5072138;28;20044;-84
2022/11/28 12:29:33;;;;;;;0.10;0.10;;;8.70;99.90;;;;;;5069719;28;20098;-83
2022/11/28 12:32:16;;;;;;;0.10;0.10;;;8.70;99.90;;;;;;5043810;28;20048;-83
2022/11/28 12:34:52;;;;;;;0.10;0.10;;;8.80;99.90;;;;;;5050296;28;20074;-85
2022/11/28 12:37:30;;;;;;;0.10;0.10;;;8.80;99.90;;;;;;5044698;28;20060;-83
2022/11/28 12:40:34;;;;;;;0.10;0.10;;;8.80;99.90;;;;;;5062318;28;20048;-83
2022/11/28 12:43:14;;;;;;;0.10;0.10;;;8.90;99.90;;;;;;5049371;28;20039;-85
2022/11/28 12:45:49;;;;;;;0.10;0.10;;;8.90;99.90;;;;;;5037468;28;20561;-84
2022/11/28 12:48:35;;;;;;;0.10;0.10;;;9.10;99.90;;;;;;5049251;28;20068;-84
2022/11/28 12:51:14;;;;;;;0.10;0.10;;;9.10;99.90;;;;;;5052139;28;20587;-84
2022/11/28 12:53:58;;;;;;;0.10;0.10;;;9.10;99.90;;;;;;5047417;28;20122;-83
2022/11/28 12:56:37;;;;;;;0.10;0.10;;;8.90;99.90;;;;;;5051221;28;20045;-83
2022/11/28 12:59:16;;;;;;;0.10;0.10;;;8.90;99.90;;;;;;5050081;28;22006;-84
2022/11/28 13:01:59;;;;;;;0.10;0.10;;;8.80;99.90;;;;;;5049134;28;20089;-83
2022/11/28 13:05:01;;;;;;;0.10;0.10;;;8.90;99.90;;;;;;5069234;28;20049;-84
2022/11/28 13:07:36;;;;;;;0.10;0.10;;;8.90;99.90;;;;;;5066196;28;20041;-83
2022/11/28 13:10:09;;;;;;;0.10;0.10;;;9.00;99.90;;;;;;5054731;28;20091;-84
2022/11/28 13:12:48;;;;;;;0.10;0.10;;;9.00;99.90;;;;;;5049215;28;20032;-84
2022/11/28 13:15:20;;;;;;;0.00;0.00;;;8.80;99.90;;;;;;5068971;28;20083;-83
2022/11/28 13:17:52;;;;;;;0.10;0.10;;;8.80;99.90;;;;;;5067155;28;20073;-83
2022/11/28 13:20:26;;;;;;;0.10;0.10;;;8.70;99.90;;;;;;5066231;28;20147;-83
2022/11/28 13:23:03;;;;;;;0.10;0.10;;;10.90;99.90;;;;;;5067168;28;20048;-83
2022/11/28 13:25:37;;;;;;;0.10;0.10;;;8.90;99.90;;;;;;5063474;28;20404;-85
2022/11/28 13:28:12;;;;;;;0.10;0.10;;;8.90;99.90;;;;;;5050959;28;20068;-82
2022/11/28 13:30:44;;;;;;;0.10;0.10;;;8.90;99.90;;;;;;5067743;28;20055;-82
2022/11/28 13:33:26;;;;;;;0.10;0.10;;;8.90;99.90;;;;;;5057099;28;20090;-83